Time;durP1;ratioP1;P1;durP2;ratioP2;P2;SDS_P1;SDS_P2;PMS_P1;PMS_P2;Temp;Humidity;BMP_temperature;BMP_pressure;BME280_temperature;BME280_humidity;BME280_pressure;Samples;Min_cycle;Max_cycle;Signal;HPM_P1;HPM_P2
2022/04/03 00:45:13;;;;;;;;;;;;;;;15.80;47.79;102486.34;6271471;22;19919;-80
2022/04/03 00:47:38;;;;;;;;;;;;;;;15.79;47.79;102488.06;6282012;22;19914;-80
2022/04/03 00:50:04;;;;;;;;;;;;;;;15.79;47.58;102493.25;6309643;22;19918;-80
2022/04/03 00:52:29;;;;;;;;;;;;;;;15.78;47.29;102488.00;6282553;22;19929;-80
2022/04/03 00:54:54;;;;;;;;;;;;;;;15.78;47.41;102485.41;6282386;22;19914;-80
2022/04/03 00:57:21;;;;;;;;;;;;;;;15.78;47.39;102488.00;6309786;22;19941;-79
2022/04/03 00:59:48;;;;;;;;;;;;;;;15.77;47.65;102484.53;6282400;22;19907;-80
2022/04/03 01:02:13;;;;;;;;;;;;;;;15.76;47.59;102474.97;6282259;22;19907;-80
2022/04/03 01:04:38;;;;;;;;;;;;;;;15.76;47.40;102485.38;6309721;22;19914;-80
2022/04/03 01:07:04;;;;;;;;;;;;;;;15.76;47.48;102480.19;6282131;22;19907;-79
2022/04/03 01:14:41;;;;;;;;;;;;;;;15.76;47.58;102484.50;6271751;22;19923;-78
2022/04/03 01:17:07;;;;;;;;;;;;;;;15.76;47.72;102474.13;6282558;22;20383;-80
2022/04/03 01:19:32;;;;;;;;;;;;;;;15.73;47.66;102474.91;6309670;22;20032;-80
2022/04/03 01:21:58;;;;;;;;;;;;;;;15.74;47.00;102481.88;6282184;22;19907;-80
2022/04/03 01:24:24;;;;;;;;;;;;;;;15.73;47.36;102476.66;6309547;22;19906;-80
2022/04/03 01:26:50;;;;;;;;;;;;;;;15.74;47.59;102475.78;6309478;22;19913;-80
2022/04/03 01:29:16;;;;;;;;;;;;;;;15.75;47.44;102475.84;6282154;22;19994;-80
2022/04/03 01:31:42;;;;;;;;;;;;;;;15.75;47.24;102482.75;6282163;22;20328;-80
2022/04/03 01:34:07;;;;;;;;;;;;;;;15.74;47.29;102479.28;6282386;22;19934;-80
2022/04/03 01:36:32;;;;;;;;;;;;;;;15.73;47.37;102472.31;6309250;22;20316;-80
2022/04/03 01:38:58;;;;;;;;;;;;;;;15.71;47.20;102468.81;6255932;22;19911;-80
2022/04/03 01:41:23;;;;;;;;;;;;;;;15.71;47.16;102474.00;6282174;22;19907;-79
2022/04/03 01:59:19;;;;;;;;;;;;;;;15.72;47.06;102472.28;6241854;22;20761;-80
2022/04/03 02:01:45;;;;;;;;;;;;;;;15.71;47.17;102465.31;6256877;22;19918;-80
2022/04/03 02:04:10;;;;;;;;;;;;;;;15.70;46.96;102467.03;6256334;22;19961;-79
2022/04/03 02:06:35;;;;;;;;;;;;;;;15.70;47.16;102461.84;6256104;22;20243;-79
2022/04/03 02:09:04;;;;;;;;;;;;;;;15.69;47.00;102460.06;6257416;22;20243;-79
2022/04/03 02:11:29;;;;;;;;;;;;;;;15.70;47.13;102463.53;6257063;22;19911;-79
2022/04/03 02:13:55;;;;;;;;;;;;;;;15.70;47.24;102461.84;6256479;22;20410;-79
2022/04/03 02:16:20;;;;;;;;;;;;;;;15.70;47.20;102461.84;6282016;22;20242;-79
2022/04/03 02:18:45;;;;;;;;;;;;;;;15.69;46.74;102464.41;6281709;22;19929;-80
2022/04/03 02:21:11;;;;;;;;;;;;;;;15.69;46.92;102459.22;6281584;22;19959;-79
2022/04/03 02:23:36;;;;;;;;;;;;;;;15.68;46.73;102460.94;6256256;22;20335;-79
2022/04/03 02:26:01;;;;;;;;;;;;;;;15.67;47.03;102464.34;6256131;22;19918;-79
2022/04/03 02:28:27;;;;;;;;;;;;;;;15.67;46.91;102474.72;6308871;22;19913;-80
2022/04/03 04:05:42;;;;;;;;;;;;;;;15.64;46.15;102448.72;6292605;22;20076;-80
2022/04/03 04:08:08;;;;;;;;;;;;;;;15.63;46.42;102450.44;6257132;22;20327;-80
2022/04/03 04:10:33;;;;;;;;;;;;;;;15.62;46.41;102448.69;6282827;22;19929;-80
2022/04/03 04:12:59;;;;;;;;;;;;;;;15.61;46.31;102446.94;6282536;22;19922;-79
2022/04/03 04:15:27;;;;;;;;;;;;;;;15.60;46.21;102450.34;6283002;22;19907;-79
2022/04/03 04:17:54;;;;;;;;;;;;;;;15.61;46.37;102449.53;6283713;22;19911;-80
2022/04/03 04:20:19;;;;;;;;;;;;;;;15.61;46.36;102451.22;6283183;22;19911;-80
2022/04/03 04:22:45;;;;;;;;;;;;;;;15.60;46.09;102455.53;6257205;22;19911;-80
2022/04/03 04:25:14;;;;;;;;;;;;;;;15.61;46.20;102459.00;6257065;22;19911;-80
2022/04/03 04:27:40;;;;;;;;;;;;;;;15.62;46.22;102451.28;6310019;22;19993;-79
2022/04/03 04:30:06;;;;;;;;;;;;;;;15.62;46.16;102447.81;6282683;22;19986;-79
2022/04/03 04:32:32;;;;;;;;;;;;;;;15.61;46.25;102446.94;6282642;22;19968;-80
2022/04/03 04:34:57;;;;;;;;;;;;;;;15.59;46.16;102448.63;6258940;22;19959;-80
2022/04/03 04:37:22;;;;;;;;;;;;;;;15.58;46.22;102449.44;6258611;22;20328;-79
2022/04/03 04:39:48;;;;;;;;;;;;;;;15.60;46.01;102454.66;6283117;22;19942;-79
2022/04/03 04:42:13;;;;;;;;;;;;;;;15.59;46.13;102450.31;6282743;22;19907;-80
2022/04/03 04:44:39;;;;;;;;;;;;;;;15.59;46.19;102452.91;6282773;22;19933;-77
2022/04/03 04:47:04;;;;;;;;;;;;;;;15.58;46.28;102449.44;6257470;22;20255;-79
2022/04/03 04:49:30;;;;;;;;;;;;;;;15.57;46.11;102452.88;6283192;22;19907;-80
2022/04/03 04:51:55;;;;;;;;;;;;;;;15.58;46.03;102454.63;6257564;22;19915;-80
2022/04/03 04:54:20;;;;;;;;;;;;;;;15.57;46.10;102446.78;6282716;22;20212;-78
2022/04/03 04:56:45;;;;;;;;;;;;;;;15.57;46.06;102450.28;6257006;22;19910;-78
2022/04/03 04:59:11;;;;;;;;;;;;;;;15.54;46.21;102450.19;6257212;22;19965;-78
2022/04/03 05:01:36;;;;;;;;;;;;;;;15.56;46.20;102451.13;6283046;22;20213;-78
2022/04/03 05:04:02;;;;;;;;;;;;;;;15.56;46.21;102448.53;6282422;22;20342;-80
2022/04/03 05:06:27;;;;;;;;;;;;;;;15.57;45.87;102441.59;6309832;22;19914;-80
2022/04/03 05:08:54;;;;;;;;;;;;;;;15.56;45.75;102440.72;6282167;22;20347;-79
2022/04/03 05:11:19;;;;;;;;;;;;;;;15.59;45.97;102439.94;6282040;22;19914;-80
2022/04/03 05:13:45;;;;;;;;;;;;;;;15.58;45.78;102448.56;6282391;22;19933;-78
2022/04/03 05:16:10;;;;;;;;;;;;;;;15.61;45.76;102446.03;6256750;22;19918;-77
2022/04/03 05:18:36;;;;;;;;;;;;;;;15.61;45.72;102443.44;6309841;22;20239;-77
2022/04/03 05:21:02;;;;;;;;;;;;;;;15.63;45.74;102442.66;6309763;22;19942;-77
2022/04/03 05:23:27;;;;;;;;;;;;;;;15.66;45.84;102444.44;6281954;22;19907;-77
2022/04/03 05:25:52;;;;;;;;;;;;;;;15.68;45.57;102444.47;6282169;22;19911;-77
2022/04/03 05:28:18;;;;;;;;;;;;;;;15.68;45.53;102441.88;6282091;22;19942;-77
2022/04/03 05:30:43;;;;;;;;;;;;;;;15.70;45.64;102442.78;6281951;22;19907;-79
2022/04/03 05:33:08;;;;;;;;;;;;;;;15.69;45.41;102431.53;6282059;22;19911;-80
2022/04/03 05:35:34;;;;;;;;;;;;;;;15.71;45.49;102428.97;6309359;22;20322;-80
2022/04/03 05:37:59;;;;;;;;;;;;;;;15.72;45.39;102439.44;6281944;22;19917;-80
2022/04/03 05:40:24;;;;;;;;;;;;;;;15.73;45.35;102435.13;6282162;22;19917;-79
2022/04/03 05:42:49;;;;;;;;;;;;;;;15.72;45.35;102439.44;6256659;22;19934;-80
2022/04/03 05:45:15;;;;;;;;;;;;;;;15.73;45.30;102432.53;6257045;22;19973;-79
2022/04/03 05:47:40;;;;;;;;;;;;;;;15.74;45.54;102437.75;6281746;22;19907;-80
2022/04/03 05:50:06;;;;;;;;;;;;;;;15.76;45.13;102440.38;6256813;22;19911;-79
2022/04/03 05:52:39;;;;;;;;;;;;;;;15.77;45.23;102443.00;6256451;22;19915;-80
2022/04/03 05:55:05;;;;;;;;;;;;;;;15.80;45.00;102442.19;6309342;22;19989;-78
2022/04/03 05:57:30;;;;;;;;;;;;;;;15.80;45.15;102450.84;6281959;22;19907;-78
2022/04/03 05:59:55;;;;;;;;;;;;;;;15.83;45.22;102456.16;6282610;22;19961;-78
2022/04/03 06:02:20;;;;;;;;;;;;;;;15.87;45.03;102453.59;6256418;22;20036;-78
2022/04/03 06:04:46;;;;;;;;;;;;;;;15.91;44.81;102445.91;6282433;22;19915;-78
2022/04/03 06:17:35;;;;;;;;;;;;;;;15.98;44.95;102459.91;6291071;22;19903;-87
2022/04/03 06:23:31;;;;;;;;;;;;;;;16.35;44.92;102463.34;6332313;22;19989;-83
2022/04/03 06:25:57;;;;;;;;;;;;;;;17.50;42.50;102467.28;6284997;22;20189;-78
2022/04/03 06:28:22;;;;;;;;;;;;;;;18.16;41.28;102461.41;6309115;22;19914;-75
2022/04/03 06:30:48;;;;;;;;;;;;;;;18.45;40.68;102458.31;6308820;22;19915;-76
2022/04/03 06:33:13;;;;;;;;;;;;;;;17.73;41.85;102462.47;6256067;22;19994;-87
2022/04/03 06:35:39;;;;;;;;;;;;;;;17.20;43.79;102465.91;6309430;22;19907;-88
2022/04/03 06:38:05;;;;;;;;;;;;;;;16.99;44.33;102469.88;6309436;22;19907;-88
2022/04/03 06:40:33;;;;;;;;;;;;;;;16.94;43.94;102461.13;6282474;22;19945;-87
2022/04/03 06:42:58;;;;;;;;;;;;;;;17.08;43.56;102460.50;6283197;22;19918;-87
2022/04/03 06:45:24;;;;;;;;;;;;;;;18.19;41.01;102455.38;6256421;22;19911;-88
2022/04/03 06:47:49;;;;;;;;;;;;;;;18.94;39.71;102456.28;6309718;22;19929;-85
2022/04/03 06:50:15;;;;;;;;;;;;;;;19.53;38.61;102455.09;6281748;22;19911;-85
2022/04/03 06:52:40;;;;;;;;;;;;;;;19.92;37.40;102454.56;6256585;22;19918;-84
2022/04/03 06:55:06;;;;;;;;;;;;;;;19.73;37.62;102452.69;6281923;22;20217;-85
2022/04/03 06:57:31;;;;;;;;;;;;;;;19.89;37.63;102453.66;6309277;22;19938;-84
2022/04/03 06:59:57;;;;;;;;;;;;;;;20.14;37.10;102445.09;6281789;22;20372;-84
2022/04/03 07:02:22;;;;;;;;;;;;;;;20.45;36.62;102449.59;6281835;22;19914;-85
2022/04/03 07:04:47;;;;;;;;;;;;;;;20.49;36.79;102452.22;6309253;22;19938;-85
2022/04/03 07:07:20;;;;;;;;;;;;;;;20.12;37.29;102443.31;6282364;22;19907;-85
2022/04/03 07:09:45;;;;;;;;;;;;;;;21.58;33.93;102441.13;6282024;22;19993;-85
2022/04/03 07:12:11;;;;;;;;;;;;;;;18.97;39.24;102456.34;6282045;22;19950;-86
2022/04/03 07:14:37;;;;;;;;;;;;;;;17.89;41.60;102461.88;6310894;22;19922;-88
2022/04/03 07:17:02;;;;;;;;;;;;;;;17.41;42.96;102463.69;6282960;22;19918;-88
2022/04/03 07:19:27;;;;;;;;;;;;;;;17.20;43.63;102463.31;6258011;22;19946;-87
2022/04/03 07:21:53;;;;;;;;;;;;;;;17.08;43.50;102463.97;6259680;22;19911;-88
2022/04/03 07:24:18;;;;;;;;;;;;;;;16.98;43.76;102470.72;6263510;22;20332;-86
2022/04/03 07:26:43;;;;;;;;;;;;;;;16.92;43.97;102473.22;6290194;22;19911;-85
2022/04/03 07:29:09;;;;;;;;;;;;;;;16.87;44.23;102467.03;6287284;22;19938;-84
2022/04/03 07:31:34;;;;;;;;;;;;;;;16.84;44.28;102467.84;6294577;22;19917;-82
2022/04/03 07:33:59;;;;;;;;;;;;;;;16.82;44.25;102469.53;6293073;22;19950;-84
2022/04/03 07:36:25;;;;;;;;;;;;;;;16.81;44.43;102472.09;6293593;22;19907;-85
2022/04/03 07:38:52;;;;;;;;;;;;;;;16.80;44.37;102472.97;6295992;22;20491;-84
2022/04/03 07:41:17;;;;;;;;;;;;;;;16.79;44.53;102473.78;6296140;22;19911;-83
2022/04/03 07:43:42;;;;;;;;;;;;;;;16.77;44.51;102475.47;6296771;22;19914;-84
2022/04/03 07:46:12;;;;;;;;;;;;;;;16.74;44.49;102481.47;6294957;22;20254;-83
2022/04/03 07:48:37;;;;;;;;;;;;;;;16.71;44.65;102486.63;6322577;22;19917;-83
2022/04/03 07:51:02;;;;;;;;;;;;;;;16.69;44.72;102483.13;6323547;22;19907;-83
2022/04/03 07:53:28;;;;;;;;;;;;;;;16.66;44.85;102483.94;6274451;22;19919;-83
2022/04/03 07:55:53;;;;;;;;;;;;;;;16.65;44.82;102486.50;6301204;22;19917;-84
2022/04/03 07:58:18;;;;;;;;;;;;;;;16.64;45.02;102489.94;6294615;22;19911;-83
2022/04/03 08:00:44;;;;;;;;;;;;;;;16.61;45.13;102490.78;6296515;22;19918;-85
2022/04/03 08:03:10;;;;;;;;;;;;;;;16.64;44.91;102508.16;6299010;22;19918;-84
2022/04/03 08:05:35;;;;;;;;;;;;;;;16.63;44.79;102501.19;6299002;22;19907;-85
2022/04/03 08:08:00;;;;;;;;;;;;;;;16.62;44.94;102510.69;6279241;22;19918;-85
2022/04/03 08:10:25;;;;;;;;;;;;;;;16.60;44.83;102512.41;6303574;22;19911;-84
2022/04/03 08:16:03;;;;;;;;;;;;;;;16.61;45.11;102521.06;6334011;22;19946;-84
2022/04/03 08:18:28;;;;;;;;;;;;;;;16.62;45.02;102534.09;6295044;22;19942;-83
2022/04/03 08:20:54;;;;;;;;;;;;;;;16.63;45.13;102534.97;6289993;22;20328;-82
2022/04/03 08:23:19;;;;;;;;;;;;;;;16.57;45.43;102534.81;6289479;22;19987;-81
2022/04/03 08:25:45;;;;;;;;;;;;;;;16.58;45.36;102532.28;6260250;22;20282;-82
2022/04/03 08:28:10;;;;;;;;;;;;;;;16.56;45.58;102522.69;6311703;22;19987;-81
2022/04/03 08:30:37;;;;;;;;;;;;;;;16.61;45.94;102526.25;6316925;22;19952;-83
2022/04/03 08:33:04;;;;;;;;;;;;;;;16.58;46.15;102529.69;6274220;22;19899;-84
2022/04/03 08:35:37;;;;;;;;;;;;;;;16.61;46.18;102527.16;6300316;22;19907;-86
2022/04/03 08:38:07;;;;;;;;;;;;;;;16.69;46.10;102524.72;6299178;22;19907;-85
2022/04/03 08:43:18;;;;;;;;;;;;;;;17.20;44.97;102521.44;6296532;22;19922;-88
2022/04/03 08:45:43;;;;;;;;;;;;;;;16.92;46.01;102525.22;6263341;22;19915;-86
2022/04/03 08:48:09;;;;;;;;;;;;;;;16.71;46.63;102516.94;6269139;22;19911;-86
2022/04/03 08:50:36;;;;;;;;;;;;;;;16.65;46.94;102515.94;6298648;22;19947;-85
2022/04/03 08:53:03;;;;;;;;;;;;;;;16.65;46.81;102517.69;6297784;22;19968;-87
2022/04/03 08:55:30;;;;;;;;;;;;;;;16.64;47.15;102515.94;6301014;22;19907;-84
2022/04/03 08:57:55;;;;;;;;;;;;;;;16.62;47.55;102512.44;6276028;22;19910;-85
2022/04/03 09:06:27;;;;;;;;;;;;;;;16.73;47.56;102513.53;6333103;22;19929;-87
2022/04/03 09:09:02;;;;;;;;;;;;;;;16.77;47.36;102514.47;6330367;22;19907;-84
2022/04/03 09:11:48;;;;;;;;;;;;;;;16.79;47.35;102510.19;6326812;22;19907;-86
2022/04/03 09:14:14;;;;;;;;;;;;;;;16.85;47.46;102510.31;6306106;22;19911;-85
2022/04/03 09:16:52;;;;;;;;;;;;;;;16.91;47.26;102507.84;6306308;22;19911;-84
2022/04/03 09:19:30;;;;;;;;;;;;;;;16.84;47.42;102505.97;6328460;22;19989;-85
2022/04/03 09:22:14;;;;;;;;;;;;;;;16.85;47.71;102505.13;6302370;22;19907;-85
2022/04/03 09:36:55;;;;;;;;;;;;;;;16.58;48.87;102495.88;6241054;23;19932;-86
2022/04/03 09:45:29;;;;;;;;;;;;;;;16.55;48.97;102488.03;6210613;23;20116;-85
2022/04/03 09:54:03;;;;;;;;;;;;;;;16.86;50.49;102481.75;6317437;22;19930;-86
2022/04/03 09:57:00;;;;;;;;;;;;;;;16.93;52.58;102487.97;6332744;22;19930;-86
2022/04/03 09:59:25;;;;;;;;;;;;;;;16.81;52.84;102479.91;6331159;22;19937;-84
2022/04/03 10:04:38;;;;;;;;;;;;;;;16.81;51.91;102479.91;6322763;22;19919;-85
2022/04/03 10:07:13;;;;;;;;;;;;;;;16.80;51.70;102483.38;6277733;22;19917;-88
2022/04/03 10:15:38;;;;;;;;;;;;;;;16.42;52.82;102489.50;6288532;22;19919;-85
2022/04/03 10:18:05;;;;;;;;;;;;;;;16.36;52.81;102491.09;6298828;22;19895;-84
2022/04/03 10:20:30;;;;;;;;;;;;;;;16.33;53.22;102491.00;6278418;22;19990;-84
2022/04/03 10:23:00;;;;;;;;;;;;;;;16.32;53.38;102489.25;6305265;22;19909;-86
2022/04/03 10:25:28;;;;;;;;;;;;;;;16.30;53.47;102489.22;6303874;22;19914;-83
2022/04/03 10:27:56;;;;;;;;;;;;;;;16.34;53.41;102491.03;6305569;22;19914;-83
2022/04/03 10:30:32;;;;;;;;;;;;;;;16.40;53.31;102493.78;6310613;22;19903;-84
2022/04/03 10:32:59;;;;;;;;;;;;;;;16.42;53.47;102483.44;6301927;22;19915;-82
2022/04/03 10:35:24;;;;;;;;;;;;;;;16.49;53.87;102490.50;6330484;22;19914;-85
2022/04/03 10:37:58;;;;;;;;;;;;;;;16.58;53.00;102492.41;6326545;22;19911;-84
2022/04/03 10:40:29;;;;;;;;;;;;;;;16.74;52.80;102488.41;6326440;22;20247;-83
2022/04/03 10:42:56;;;;;;;;;;;;;;;16.83;52.92;102478.22;6299419;22;20338;-84
2022/04/03 10:45:24;;;;;;;;;;;;;;;16.88;52.33;102476.59;6292496;22;19933;-85
2022/04/03 10:47:51;;;;;;;;;;;;;;;16.95;52.40;102481.06;6292804;22;19918;-86
2022/04/03 10:50:16;;;;;;;;;;;;;;;16.99;53.01;102475.06;6261478;22;19911;-83
2022/04/03 10:52:41;;;;;;;;;;;;;;;16.96;52.42;102467.22;6310020;22;19966;-83
2022/04/03 10:55:20;;;;;;;;;;;;;;;16.91;52.76;102470.56;6288702;22;19907;-83
2022/04/03 10:57:50;;;;;;;;;;;;;;;16.91;53.10;102473.19;6311794;22;19942;-83
2022/04/03 11:00:28;;;;;;;;;;;;;;;16.90;53.52;102472.31;6311039;22;19907;-83
2022/04/03 11:02:57;;;;;;;;;;;;;;;16.89;53.04;102464.47;6283666;22;19907;-84
2022/04/03 11:05:22;;;;;;;;;;;;;;;16.84;53.09;102462.66;6284980;22;19929;-84
2022/04/03 11:07:48;;;;;;;;;;;;;;;16.79;53.44;102459.06;6285867;22;20323;-84
2022/04/03 11:10:13;;;;;;;;;;;;;;;16.73;53.70;102455.47;6262245;22;19934;-83
2022/04/03 11:12:54;;;;;;;;;;;;;;;16.67;53.99;102458.81;6265690;22;19969;-82
2022/04/03 11:15:19;;;;;;;;;;;;;;;16.63;53.86;102455.25;6320599;22;19915;-83
2022/04/03 11:17:47;;;;;;;;;;;;;;;16.61;53.98;102449.19;6293402;22;19914;-83
2022/04/03 11:20:28;;;;;;;;;;;;;;;16.56;54.43;102448.19;6297400;22;19984;-82
2022/04/03 11:22:53;;;;;;;;;;;;;;;16.55;54.20;102453.34;6331035;22;19914;-83
2022/04/03 11:25:18;;;;;;;;;;;;;;;16.54;54.25;102449.00;6303683;22;19911;-83
2022/04/03 11:27:44;;;;;;;;;;;;;;;16.53;54.38;102453.34;6299552;22;20280;-84
2022/04/03 11:30:09;;;;;;;;;;;;;;;16.55;54.21;102449.06;6304023;22;19933;-82
2022/04/03 11:32:35;;;;;;;;;;;;;;;16.58;55.88;102443.91;6306652;22;19922;-84
2022/04/03 11:38:04;;;;;;;;;;;;;;;16.66;55.51;102441.47;6331850;22;19913;-87
2022/04/03 11:40:36;;;;;;;;;;;;;;;16.63;55.50;102436.19;6302019;22;19911;-89
2022/04/03 11:46:04;;;;;;;;;;;;;;;16.75;53.79;102438.19;6331397;22;19933;-86
2022/04/03 11:51:33;;;;;;;;;;;;;;;16.80;54.42;102429.63;6328697;22;19982;-86
2022/04/03 11:54:18;;;;;;;;;;;;;;;16.86;53.58;102431.50;6265503;22;19915;-85
2022/04/03 11:56:45;;;;;;;;;;;;;;;16.91;53.88;102428.97;6282232;22;19914;-86
2022/04/03 11:59:11;;;;;;;;;;;;;;;16.93;54.04;102425.53;6265163;22;19911;-86
2022/04/03 12:01:38;;;;;;;;;;;;;;;16.94;53.79;102426.41;6286496;22;19907;-85
2022/04/03 12:04:06;;;;;;;;;;;;;;;16.94;53.57;102434.22;6313946;22;19914;-86
2022/04/03 12:06:32;;;;;;;;;;;;;;;16.91;54.15;102422.03;6290389;22;19907;-84
2022/04/03 12:08:58;;;;;;;;;;;;;;;16.92;53.74;102428.09;6291701;22;19941;-85
2022/04/03 12:11:24;;;;;;;;;;;;;;;16.91;53.98;102415.97;6289240;22;19906;-84
2022/04/03 12:13:52;;;;;;;;;;;;;;;16.94;53.89;102418.63;6259914;22;20319;-82
2022/04/03 12:16:19;;;;;;;;;;;;;;;16.91;54.14;102415.97;6283220;22;19919;-81
2022/04/03 12:18:48;;;;;;;;;;;;;;;16.93;53.58;102419.47;6283871;22;19907;-81
2022/04/03 12:21:13;;;;;;;;;;;;;;;16.92;53.75;102413.41;6311239;22;19907;-81
2022/04/03 12:23:38;;;;;;;;;;;;;;;16.91;53.98;102422.03;6283905;22;19911;-82
2022/04/03 12:26:03;;;;;;;;;;;;;;;16.88;53.86;102403.78;6310960;22;19949;-81
2022/04/03 12:28:29;;;;;;;;;;;;;;;16.93;53.88;102414.28;6258474;22;20131;-83
2022/04/03 12:30:59;;;;;;;;;;;;;;;16.95;54.18;102407.38;6283386;22;20350;-81
2022/04/03 12:33:24;;;;;;;;;;;;;;;16.91;54.32;102403.84;6284625;22;19915;-82
2022/04/03 12:35:49;;;;;;;;;;;;;;;16.88;54.51;102398.59;6283399;22;19944;-80
2022/04/03 12:38:14;;;;;;;;;;;;;;;16.86;54.31;102403.75;6309982;22;19911;-80
2022/04/03 12:40:46;;;;;;;;;;;;;;;16.91;54.48;102409.03;6310473;22;19910;-81
2022/04/03 12:43:11;;;;;;;;;;;;;;;16.97;54.43;102411.75;6257620;22;19911;-80
2022/04/03 12:45:37;;;;;;;;;;;;;;;16.98;54.28;102405.69;6258010;22;19959;-84
2022/04/03 12:48:03;;;;;;;;;;;;;;;16.99;54.02;102404.84;6258077;22;19949;-81
2022/04/03 12:50:38;;;;;;;;;;;;;;;16.95;54.36;102408.25;6284248;22;20209;-81
2022/04/03 12:53:04;;;;;;;;;;;;;;;16.94;54.01;102409.13;6282417;22;20302;-82
2022/04/03 12:55:32;;;;;;;;;;;;;;;16.90;54.21;102399.50;6282930;22;20361;-82
2022/04/03 13:00:52;;;;;;;;;;;;;;;16.91;53.91;102395.16;6310984;22;19913;-81
2022/04/03 13:03:37;;;;;;;;;;;;;;;16.94;53.80;102403.91;6283047;22;19907;-82
2022/04/03 13:06:14;;;;;;;;;;;;;;;16.94;53.67;102396.13;6283695;22;19907;-83
2022/04/03 13:08:46;;;;;;;;;;;;;;;16.93;53.82;102396.06;6283746;22;19906;-82
2022/04/03 13:11:23;;;;;;;;;;;;;;;17.01;53.12;102384.97;6282146;22;19950;-82
2022/04/03 13:13:49;;;;;;;;;;;;;;;17.00;53.55;102391.00;6282732;22;19911;-82
2022/04/03 13:16:14;;;;;;;;;;;;;;;16.95;53.43;102387.44;6283234;22;20441;-82
2022/04/03 13:18:39;;;;;;;;;;;;;;;16.95;53.51;102391.78;6257170;22;19926;-82
2022/04/03 13:21:04;;;;;;;;;;;;;;;16.95;53.12;102384.84;6282953;22;19903;-81
2022/04/03 13:23:30;;;;;;;;;;;;;;;16.92;52.97;102383.91;6282726;22;19918;-84
2022/04/03 13:25:56;;;;;;;;;;;;;;;16.94;53.23;102384.81;6311091;22;20367;-82
2022/04/03 13:28:22;;;;;;;;;;;;;;;16.98;52.92;102381.41;6282749;22;19994;-84
2022/04/03 13:30:47;;;;;;;;;;;;;;;16.98;53.12;102379.69;6282782;22;19957;-82
2022/04/03 13:33:13;;;;;;;;;;;;;;;16.98;52.64;102379.69;6258057;22;20307;-82
2022/04/03 13:35:41;;;;;;;;;;;;;;;16.97;52.58;102370.16;6282606;22;19989;-82
2022/04/03 13:38:10;;;;;;;;;;;;;;;16.95;52.41;102382.25;6282886;22;20358;-81
2022/04/03 13:40:36;;;;;;;;;;;;;;;16.93;52.47;102375.28;6286549;22;19907;-86
2022/04/03 13:43:02;;;;;;;;;;;;;;;16.91;52.82;102372.63;6263322;22;19911;-84
2022/04/03 13:48:15;;;;;;;;;;;;;;;16.96;52.58;102364.91;6298040;22;19933;-85
2022/04/03 13:50:40;;;;;;;;;;;;;;;16.98;52.21;102358.00;6291690;22;19933;-83
2022/04/03 13:53:07;;;;;;;;;;;;;;;16.97;52.11;102358.88;6264147;22;19962;-84
2022/04/03 13:55:33;;;;;;;;;;;;;;;16.97;52.06;102358.88;6315335;22;19907;-83
2022/04/03 13:57:58;;;;;;;;;;;;;;;16.97;52.43;102353.69;6288285;22;19911;-85
2022/04/03 14:00:26;;;;;;;;;;;;;;;17.01;51.96;102352.88;6288083;22;19956;-87
2022/04/03 14:02:51;;;;;;;;;;;;;;;16.96;52.07;102358.00;6318023;22;19911;-84
2022/04/03 14:05:17;;;;;;;;;;;;;;;16.92;52.19;102340.59;6292414;22;19921;-85
2022/04/03 14:07:42;;;;;;;;;;;;;;;16.94;51.88;102348.41;6291145;22;19945;-85
2022/04/03 14:10:17;;;;;;;;;;;;;;;16.98;51.46;102340.69;6290414;22;20274;-83
2022/04/03 14:12:48;;;;;;;;;;;;;;;17.02;51.69;102336.41;6316436;22;19918;-84
2022/04/03 14:15:16;;;;;;;;;;;;;;;17.06;51.33;102335.63;6287376;22;20162;-83
2022/04/03 14:17:44;;;;;;;;;;;;;;;17.06;51.31;102333.88;6283168;22;19945;-83
2022/04/03 14:20:10;;;;;;;;;;;;;;;17.09;51.01;102338.25;6257512;22;20251;-83
2022/04/03 14:22:36;;;;;;;;;;;;;;;17.11;51.21;102333.97;6257573;22;19910;-84
2022/04/03 14:25:03;;;;;;;;;;;;;;;17.09;51.01;102333.06;6311518;22;20339;-87
2022/04/03 14:27:29;;;;;;;;;;;;;;;17.09;50.96;102325.25;6283694;22;19906;-84
2022/04/03 14:29:58;;;;;;;;;;;;;;;17.06;50.63;102331.28;6282939;22;19907;-83
2022/04/03 14:32:23;;;;;;;;;;;;;;;17.03;50.24;102326.03;6283603;22;19915;-85
2022/04/03 14:34:49;;;;;;;;;;;;;;;17.01;50.20;102317.34;6284177;22;19906;-85
2022/04/03 14:37:14;;;;;;;;;;;;;;;17.01;49.55;102322.53;6284557;22;19964;-85
2022/04/03 14:39:40;;;;;;;;;;;;;;;17.01;49.54;102326.88;6285143;22;19911;-85
2022/04/03 14:42:09;;;;;;;;;;;;;;;17.01;49.67;102329.47;6284357;22;19938;-84
2022/04/03 14:44:34;;;;;;;;;;;;;;;17.05;49.50;102321.75;6284030;22;19907;-83
2022/04/03 14:47:05;;;;;;;;;;;;;;;17.05;49.61;102328.69;6310057;22;19972;-83
2022/04/03 14:49:31;;;;;;;;;;;;;;;17.05;49.31;102323.47;6281892;22;20374;-82
2022/04/03 14:51:57;;;;;;;;;;;;;;;17.05;49.50;102326.06;6281635;22;19952;-83
2022/04/03 14:54:22;;;;;;;;;;;;;;;17.03;49.62;102307.84;6284104;22;19915;-84
2022/04/03 14:56:47;;;;;;;;;;;;;;;16.98;49.34;102314.66;6257790;22;19918;-83
2022/04/03 14:59:12;;;;;;;;;;;;;;;16.96;49.20;102315.50;6310950;22;19907;-84
2022/04/03 15:01:38;;;;;;;;;;;;;;;16.93;49.29;102316.34;6283596;22;20289;-82
2022/04/03 15:04:03;;;;;;;;;;;;;;;16.92;49.57;102304.19;6283005;22;19918;-82
2022/04/03 15:06:28;;;;;;;;;;;;;;;16.93;49.55;102320.66;6282497;22;20315;-80
2022/04/03 15:08:54;;;;;;;;;;;;;;;16.93;49.32;102308.53;6283810;22;19985;-81
2022/04/03 15:11:22;;;;;;;;;;;;;;;16.93;49.62;102311.13;6309452;22;20381;-81
2022/04/03 15:13:47;;;;;;;;;;;;;;;16.95;49.69;102308.56;6283547;22;19922;-83
2022/04/03 15:16:12;;;;;;;;;;;;;;;16.97;49.53;102301.66;6281920;22;19953;-86
2022/04/03 15:18:39;;;;;;;;;;;;;;;16.96;49.74;102294.69;6283885;22;19907;-83
2022/04/03 15:21:04;;;;;;;;;;;;;;;16.94;49.54;102306.78;6283404;22;19953;-82
2022/04/03 15:23:30;;;;;;;;;;;;;;;16.95;49.85;102301.63;6257986;22;19915;-84
2022/04/03 15:25:56;;;;;;;;;;;;;;;16.96;49.77;102297.28;6284870;22;19956;-83
2022/04/03 15:28:21;;;;;;;;;;;;;;;16.96;49.43;102287.78;6285298;22;19911;-83
2022/04/03 15:30:46;;;;;;;;;;;;;;;17.00;49.00;102283.50;6310299;22;19907;-84
2022/04/03 15:33:12;;;;;;;;;;;;;;;17.03;48.81;102291.38;6285497;22;19911;-87
2022/04/03 15:35:37;;;;;;;;;;;;;;;17.06;48.64;102287.06;6286371;22;19939;-85
2022/04/03 15:38:03;;;;;;;;;;;;;;;17.03;48.70;102283.56;6285339;22;19935;-86
2022/04/03 15:40:32;;;;;;;;;;;;;;;16.99;48.70;102279.16;6262820;22;20212;-85
2022/04/03 15:42:57;;;;;;;;;;;;;;;16.95;48.90;102290.38;6263349;22;19918;-83
2022/04/03 15:45:23;;;;;;;;;;;;;;;16.93;49.38;102285.13;6283927;22;19911;-84
2022/04/03 15:47:51;;;;;;;;;;;;;;;16.88;49.55;102276.38;6258384;22;20332;-84
2022/04/03 15:50:16;;;;;;;;;;;;;;;16.86;49.98;102278.94;6285921;22;19911;-83
2022/04/03 15:52:42;;;;;;;;;;;;;;;16.84;49.86;102279.78;6260459;22;19942;-83
2022/04/03 15:55:07;;;;;;;;;;;;;;;16.83;49.99;102278.91;6287891;22;20030;-84
2022/04/03 15:57:41;;;;;;;;;;;;;;;16.85;49.77;102276.31;6261460;22;19938;-84
2022/04/03 16:00:08;;;;;;;;;;;;;;;16.86;49.73;102276.34;6289264;22;20270;-85
2022/04/03 16:02:34;;;;;;;;;;;;;;;16.86;49.38;102271.16;6318771;22;19911;-84
2022/04/03 16:05:02;;;;;;;;;;;;;;;16.88;49.60;102276.38;6290109;22;19960;-84
2022/04/03 16:07:27;;;;;;;;;;;;;;;16.88;49.36;102278.13;6264951;22;19918;-84
2022/04/03 16:09:52;;;;;;;;;;;;;;;16.86;49.38;102275.47;6288207;22;19907;-84
2022/04/03 16:12:18;;;;;;;;;;;;;;;16.84;49.47;102278.06;6263952;22;19946;-83
2022/04/03 16:14:43;;;;;;;;;;;;;;;16.86;49.42;102275.47;6287113;22;19915;-83
2022/04/03 16:17:08;;;;;;;;;;;;;;;16.88;49.69;102267.72;6265360;22;19911;-83
2022/04/03 16:22:37;;;;;;;;;;;;;;;16.95;49.43;102269.56;6325523;22;19929;-83
2022/04/03 16:25:08;;;;;;;;;;;;;;;16.93;49.21;102258.25;6293313;22;20263;-85
2022/04/03 16:27:33;;;;;;;;;;;;;;;16.94;48.81;102260.88;6263700;22;19911;-85
2022/04/03 16:29:58;;;;;;;;;;;;;;;17.00;48.58;102260.97;6261944;22;19932;-84